createdAt,value
2019-01-27T00:00:17.223Z,3.54
2019-01-27T00:03:47.357Z,3.47
2019-01-27T00:07:17.526Z,3.62
2019-01-27T00:10:47.706Z,3.72
2019-01-27T00:14:17.827Z,3.9
2019-01-27T00:17:47.895Z,3.84
2019-01-27T00:21:18.006Z,3.76
2019-01-27T00:24:48.021Z,3.6
2019-01-27T00:28:18.145Z,3.66
2019-01-27T00:31:48.225Z,3.73
2019-01-27T00:35:18.345Z,3.73
2019-01-27T00:38:48.635Z,3.79
2019-01-27T00:42:18.785Z,3.99
2019-01-27T00:45:49.890Z,4.05
2019-01-27T00:49:20.104Z,4.16
2019-01-27T00:52:50.039Z,4.21
2019-01-27T00:56:20.004Z,4.3
2019-01-27T00:59:50.005Z,4.33
2019-01-27T01:03:20.139Z,4.31
2019-01-27T01:06:50.225Z,4.39
2019-01-27T01:10:21.167Z,4.47
2019-01-27T01:13:51.305Z,4.48
2019-01-27T01:17:21.343Z,4.47
2019-01-27T01:20:51.414Z,4.42
2019-01-27T01:24:21.613Z,4.38
2019-01-27T01:27:51.743Z,4.42
2019-01-27T01:31:21.934Z,4.4
2019-01-27T01:34:51.932Z,4.33
2019-01-27T01:38:21.903Z,4.35
2019-01-27T01:41:51.943Z,4.36
2019-01-27T01:45:24.375Z,4.33
2019-01-27T01:48:55.382Z,4.22
2019-01-27T01:52:25.553Z,4.27
2019-01-27T01:55:55.592Z,4.18
2019-01-27T01:59:25.692Z,3.92
2019-01-27T02:00:18.733Z,3.96
2019-01-27T02:03:48.892Z,4
2019-01-27T02:07:19.072Z,3.96
2019-01-27T02:10:49.262Z,3.86
2019-01-27T02:14:19.371Z,3.88
2019-01-27T02:17:49.421Z,4.03
2019-01-27T02:21:19.491Z,4.15
2019-01-27T02:24:49.575Z,4.17
2019-01-27T02:28:19.791Z,4.26
2019-01-27T02:31:49.891Z,4.43
2019-01-27T02:35:19.991Z,4.53
2019-01-27T02:38:50.039Z,4.62
2019-01-27T02:42:20.082Z,4.62
2019-01-27T02:45:50.128Z,4.6
2019-01-27T02:49:21.051Z,4.62
2019-01-27T02:52:51.110Z,4.57
2019-01-27T02:56:21.340Z,4.49
2019-01-27T02:59:52.795Z,4.49
2019-01-27T03:03:23.020Z,4.44
2019-01-27T03:06:58.553Z,4.47
2019-01-27T03:10:28.700Z,4.49
2019-01-27T03:13:58.890Z,4.64
2019-01-27T03:17:29.020Z,4.78
2019-01-27T03:20:59.056Z,4.78
2019-01-27T03:24:29.110Z,4.78
2019-01-27T03:27:59.220Z,4.72
2019-01-27T03:31:29.343Z,4.72
2019-01-27T03:34:59.310Z,4.78
2019-01-27T03:38:29.440Z,4.63
2019-01-27T03:41:59.570Z,4.61
2019-01-27T03:45:29.669Z,4.69
2019-01-27T03:48:59.879Z,4.75
2019-01-27T03:52:30.849Z,4.82
2019-01-27T03:56:01.021Z,4.85
2019-01-27T03:59:31.050Z,4.83
2019-01-27T04:00:17.770Z,4.85
2019-01-27T04:03:47.779Z,4.93
2019-01-27T04:07:17.972Z,4.96
2019-01-27T04:10:48.021Z,5.04
2019-01-27T04:14:18.183Z,5.11
2019-01-27T04:17:48.362Z,5.19
2019-01-27T04:21:18.459Z,5.27
2019-01-27T04:24:48.606Z,5.24
2019-01-27T04:28:18.779Z,5.06
2019-01-27T04:31:48.808Z,4.93
2019-01-27T04:35:18.963Z,4.77
2019-01-27T04:38:49.039Z,4.79
2019-01-27T04:42:19.207Z,4.89
2019-01-27T04:45:49.238Z,4.91
2019-01-27T04:49:19.369Z,5
2019-01-27T04:52:50.489Z,5.06
2019-01-27T04:56:20.558Z,5.14
2019-01-27T04:59:50.702Z,5.1
2019-01-27T05:05:41.708Z,5.08
2019-01-27T05:09:11.879Z,5.01
2019-01-27T05:12:42.058Z,4.98
2019-01-27T05:16:12.139Z,5.06
2019-01-27T05:19:42.223Z,5.1
2019-01-27T05:23:12.328Z,5.17
2019-01-27T05:26:42.451Z,5.28
2019-01-27T05:30:15.548Z,5.35
2019-01-27T05:33:45.748Z,5.39
2019-01-27T05:37:15.862Z,5.43
2019-01-27T05:40:45.878Z,5.51
2019-01-27T05:44:15.988Z,5.44
2019-01-27T05:47:46.129Z,5.38
2019-01-27T05:51:16.269Z,5.39
2019-01-27T05:54:47.478Z,5.39
2019-01-27T05:58:17.668Z,5.42
2019-01-27T06:00:20.379Z,5.46
2019-01-27T06:03:50.357Z,5.43
2019-01-27T06:07:20.499Z,5.5
2019-01-27T06:10:50.758Z,5.48
2019-01-27T06:14:20.930Z,5.53
2019-01-27T06:17:50.978Z,5.53
2019-01-27T06:21:21.218Z,5.67
2019-01-27T06:24:51.228Z,5.8
2019-01-27T06:28:21.360Z,5.81
2019-01-27T06:31:51.449Z,5.93
2019-01-27T06:35:21.445Z,5.99
2019-01-27T06:38:51.496Z,6.1
2019-01-27T06:42:21.566Z,6.17
2019-01-27T06:45:51.598Z,6.1
2019-01-27T06:49:21.788Z,6.06
2019-01-27T06:52:51.858Z,6.04
2019-01-27T06:56:22.888Z,6.02
2019-01-27T06:59:57.707Z,6.16
2019-01-27T07:03:31.348Z,6.3
2019-01-27T07:07:15.108Z,6.43
2019-01-27T07:11:03.719Z,6.49
2019-01-27T07:14:42.528Z,6.44
2019-01-27T07:18:26.358Z,6.43
2019-01-27T07:22:23.148Z,6.53
2019-01-27T07:26:04.988Z,6.72
2019-01-27T07:32:09.642Z,6.96
2019-01-27T07:35:49.139Z,7.15
2019-01-27T07:39:27.449Z,7.19
2019-01-27T07:43:05.919Z,7.09
2019-01-27T07:46:58.089Z,6.94
2019-01-27T07:52:57.909Z,6.97
2019-01-27T07:57:43.209Z,7
2019-01-27T08:00:23.739Z,7.33
2019-01-27T08:06:22.369Z,7.72
2019-01-27T08:10:06.079Z,7.99
2019-01-27T08:13:43.059Z,7.96
2019-01-27T08:19:50.640Z,7.85
2019-01-27T08:23:29.149Z,7.71
2019-01-27T08:29:25.539Z,7.45
2019-01-27T08:33:18.323Z,7.42
2019-01-27T08:36:53.944Z,7.34
2019-01-27T08:40:38.250Z,7.4
2019-01-27T08:44:18.040Z,7.58
2019-01-27T08:47:48.130Z,7.64
2019-01-27T08:51:18.170Z,7.65
2019-01-27T08:54:48.230Z,7.78
2019-01-27T08:58:20.190Z,8.06
2019-01-27T09:04:17.576Z,8.4
2019-01-27T09:07:53.505Z,8.64
2019-01-27T09:11:39.661Z,8.79
2019-01-27T09:17:42.581Z,8.72
2019-01-27T09:21:18.268Z,8.7
2019-01-27T09:25:11.921Z,8.67
2019-01-27T09:28:48.341Z,8.75
2019-01-27T09:32:27.891Z,8.56
2019-01-27T09:36:06.442Z,8.34
2019-01-27T09:40:01.022Z,8.17
2019-01-27T09:43:40.372Z,8.29
2019-01-27T09:47:35.792Z,8.35
2019-01-27T09:52:16.362Z,8.53
2019-01-27T09:55:59.042Z,8.38
2019-01-27T09:59:50.778Z,8.06
2019-01-27T10:01:05.382Z,8.08
2019-01-27T10:04:41.913Z,8.12
2019-01-27T10:10:39.335Z,8.07
2019-01-27T10:14:33.372Z,7.87
2019-01-27T10:20:31.265Z,7.71
2019-01-27T10:24:11.673Z,7.7
2019-01-27T10:27:58.003Z,7.88
2019-01-27T10:31:55.112Z,8.11
2019-01-27T10:37:49.253Z,8.24
2019-01-27T10:41:26.443Z,8.25
2019-01-27T10:45:04.174Z,8.19
2019-01-27T10:48:42.803Z,7.94
2019-01-27T10:58:42.723Z,7.58
2019-01-27T11:02:38.017Z,7.54
2019-01-27T11:06:17.108Z,7.26
2019-01-27T11:09:54.138Z,7.04
2019-01-27T11:13:34.604Z,7.35
2019-01-27T11:17:16.934Z,7.68
2019-01-27T11:22:17.424Z,8.45
2019-01-27T11:26:00.780Z,9.38
2019-01-27T11:29:37.654Z,9.9
2019-01-27T11:33:47.955Z,9.61
2019-01-27T11:37:59.834Z,9.54
2019-01-27T11:41:46.074Z,9.21
2019-01-27T11:45:24.415Z,9.12
2019-01-27T11:51:24.533Z,8.69
2019-01-27T11:54:54.666Z,8.77
2019-01-27T11:58:24.694Z,8.71
2019-01-27T12:00:18.189Z,8.67
2019-01-27T12:03:48.485Z,8.48
2019-01-27T12:07:18.577Z,8.51
2019-01-27T12:10:48.736Z,8.5
2019-01-27T12:14:18.946Z,8.67
2019-01-27T12:17:49.077Z,8.73
2019-01-27T12:21:19.238Z,8.66
2019-01-27T12:24:49.296Z,8.65
2019-01-27T12:28:19.296Z,8.4
2019-01-27T12:31:49.418Z,8.27
2019-01-27T12:35:19.916Z,7.96
2019-01-27T12:38:50.036Z,7.97
2019-01-27T12:42:20.106Z,7.75
2019-01-27T12:45:50.256Z,7.8
2019-01-27T12:49:20.386Z,8.05
2019-01-27T12:52:50.799Z,7.89
2019-01-27T12:56:20.927Z,7.75
2019-01-27T12:59:51.057Z,7.82
2019-01-27T13:03:21.593Z,7.72
2019-01-27T13:06:52.747Z,7.63
2019-01-27T13:10:22.917Z,7.61
2019-01-27T13:13:52.977Z,7.46
2019-01-27T13:17:23.057Z,7.4
2019-01-27T13:20:53.177Z,7.26
2019-01-27T13:24:23.230Z,7.34
2019-01-27T13:27:53.375Z,7.12
2019-01-27T13:31:23.377Z,7.12
2019-01-27T13:34:56.263Z,6.98
2019-01-27T13:38:26.487Z,6.68
2019-01-27T13:41:56.579Z,6.78
2019-01-27T13:45:26.957Z,6.84
2019-01-27T13:48:57.027Z,6.65
2019-01-27T13:52:26.977Z,6.61
2019-01-27T13:55:57.002Z,6.7
2019-01-27T13:59:26.983Z,6.54
2019-01-27T14:00:20.132Z,6.54
2019-01-27T14:03:50.108Z,6.5
2019-01-27T14:07:21.098Z,6.56
2019-01-27T14:10:51.127Z,6.58
2019-01-27T14:14:21.237Z,6.65
2019-01-27T14:17:51.308Z,6.45
2019-01-27T14:21:21.378Z,6.27
2019-01-27T14:24:51.527Z,6.17
2019-01-27T14:28:21.607Z,6.09
2019-01-27T14:31:51.707Z,6.12
2019-01-27T14:35:21.787Z,6.21
2019-01-27T14:38:51.972Z,6.2
2019-01-27T14:42:22.032Z,6.28
2019-01-27T14:45:52.139Z,6.35
2019-01-27T14:49:22.277Z,6.18
2019-01-27T14:52:52.419Z,6.06
2019-01-27T14:56:22.517Z,5.97
2019-01-27T14:59:52.644Z,5.95
2019-01-27T15:03:22.817Z,5.9
2019-01-27T15:06:52.890Z,5.86
2019-01-27T15:10:24.107Z,5.79
2019-01-27T15:13:54.147Z,5.77
2019-01-27T15:17:24.357Z,5.79
2019-01-27T15:20:59.129Z,5.9
2019-01-27T15:24:29.247Z,5.95
2019-01-27T15:27:59.426Z,6.06
2019-01-27T15:31:29.447Z,6.12
2019-01-27T15:34:59.547Z,6.24
2019-01-27T15:38:29.646Z,6.32
2019-01-27T15:41:59.727Z,6.36
2019-01-27T15:45:30.237Z,6.33
2019-01-27T15:49:00.349Z,6.39
2019-01-27T15:52:30.387Z,6.45
2019-01-27T15:56:00.508Z,6.51
2019-01-27T15:59:30.518Z,6.43
2019-01-27T16:00:20.405Z,6.43
2019-01-27T16:03:50.594Z,6.38
2019-01-27T16:07:20.727Z,6.28
2019-01-27T16:10:51.950Z,6.26
2019-01-27T16:14:22.012Z,6.19
2019-01-27T16:17:52.197Z,6.2
2019-01-27T16:21:22.187Z,6.15
2019-01-27T16:24:52.377Z,6.25
2019-01-27T16:28:22.397Z,6.33
2019-01-27T16:31:57.892Z,6.31
2019-01-27T16:35:28.047Z,6.24
2019-01-27T16:38:58.309Z,6.25
2019-01-27T16:42:28.446Z,6.08
2019-01-27T16:45:58.597Z,6.02
2019-01-27T16:49:28.617Z,5.94
2019-01-27T16:52:58.717Z,5.94
2019-01-27T16:56:29.176Z,5.9
2019-01-27T16:59:59.247Z,5.86
2019-01-27T17:03:29.319Z,5.88
2019-01-27T17:06:59.371Z,5.91
2019-01-27T17:10:29.427Z,5.81
2019-01-27T17:14:00.517Z,5.76
2019-01-27T17:17:30.597Z,5.84
2019-01-27T17:21:00.726Z,5.73
2019-01-27T17:24:30.857Z,5.68
2019-01-27T17:28:01.047Z,5.75
2019-01-27T17:31:31.209Z,5.74
2019-01-27T17:35:01.763Z,5.81
2019-01-27T17:38:32.027Z,5.9
2019-01-27T17:42:02.296Z,5.86
2019-01-27T17:45:32.426Z,5.78
2019-01-27T17:49:02.706Z,5.69
2019-01-27T17:52:32.806Z,5.6
2019-01-27T17:56:03.267Z,5.59
2019-01-27T17:59:38.706Z,5.58
2019-01-27T18:00:34.581Z,5.61
2019-01-27T18:06:30.526Z,5.78
2019-01-27T18:10:22.839Z,5.8
2019-01-27T18:14:31.136Z,5.83
2019-01-27T18:18:01.393Z,5.86
2019-01-27T18:21:31.481Z,5.9
2019-01-27T18:25:01.518Z,5.97
2019-01-27T18:28:31.766Z,6.04
2019-01-27T18:32:01.976Z,6.06
2019-01-27T18:35:32.017Z,6.02
2019-01-27T18:39:06.613Z,6.01
2019-01-27T18:42:37.243Z,6.02
2019-01-27T18:46:07.615Z,5.96
2019-01-27T18:49:37.729Z,5.95
2019-01-27T18:53:20.146Z,5.96
2019-01-27T18:56:55.786Z,5.95
2019-01-27T19:00:37.986Z,6.05
2019-01-27T19:04:15.976Z,6.13
2019-01-27T19:07:55.086Z,6.12
2019-01-27T19:11:35.306Z,6.17
2019-01-27T19:16:29.526Z,6.27
2019-01-27T19:20:11.795Z,6.24
2019-01-27T19:24:13.446Z,6.31
2019-01-27T19:28:27.885Z,6.36
2019-01-27T19:34:26.446Z,6.43
2019-01-27T19:38:04.562Z,6.49
2019-01-27T19:41:43.726Z,6.46
2019-01-27T19:45:22.735Z,6.44
2019-01-27T19:49:16.436Z,6.36
2019-01-27T19:53:57.726Z,6.32
2019-01-27T19:57:37.018Z,6.2
2019-01-27T20:00:27.206Z,6.09
2019-01-27T20:04:07.876Z,5.97
2019-01-27T20:07:46.186Z,5.95
2019-01-27T20:17:18.215Z,5.93
2019-01-27T20:20:58.275Z,5.95
2019-01-27T20:24:38.355Z,5.97
2019-01-27T20:28:16.325Z,5.9
2019-01-27T20:34:29.985Z,5.96
2019-01-27T20:38:11.415Z,5.92
2019-01-27T20:41:54.575Z,5.98
2019-01-27T20:46:11.945Z,6
2019-01-27T20:49:50.965Z,5.96
2019-01-27T20:53:26.837Z,5.83
2019-01-27T20:57:04.761Z,5.81
2019-01-27T21:00:44.713Z,5.79
2019-01-27T21:04:22.930Z,5.81
2019-01-27T21:08:04.824Z,5.75
2019-01-27T21:11:44.830Z,5.73
2019-01-27T21:18:12.353Z,5.91
2019-01-27T21:21:42.504Z,6
2019-01-27T21:25:12.824Z,6.07
2019-01-27T21:28:42.876Z,6.08
2019-01-27T21:32:12.989Z,6.11
2019-01-27T21:35:42.944Z,6.19
2019-01-27T21:39:13.103Z,6.31
2019-01-27T21:42:47.562Z,6.35
2019-01-27T21:46:18.056Z,6.39
2019-01-27T21:49:48.138Z,6.36
2019-01-27T21:53:18.360Z,6.41
2019-01-27T21:56:48.440Z,6.32
2019-01-27T22:00:18.978Z,6.37
2019-01-27T22:03:49.016Z,6.3
2019-01-27T22:07:19.213Z,6.3
2019-01-27T22:10:49.239Z,6.3
2019-01-27T22:14:19.269Z,6.3
2019-01-27T22:17:49.379Z,6.3
2019-01-27T22:21:20.466Z,6.29
2019-01-27T22:24:50.646Z,6.32
2019-01-27T22:28:20.812Z,6.21
2019-01-27T22:31:50.900Z,6.18
2019-01-27T22:35:21.088Z,6.28
2019-01-27T22:38:51.167Z,6.18
2019-01-27T22:42:21.282Z,6.31
2019-01-27T22:45:51.425Z,6.26
2019-01-27T22:49:21.482Z,6.37
2019-01-27T22:52:51.501Z,6.38
2019-01-27T22:56:21.587Z,6.35
2019-01-27T22:59:51.697Z,6.35
2019-01-27T23:03:21.934Z,6.28
2019-01-27T23:06:51.921Z,6.37
2019-01-27T23:10:22.051Z,6.33
2019-01-27T23:13:52.101Z,6.31
2019-01-27T23:17:22.197Z,6.32
2019-01-27T23:20:52.245Z,6.28
2019-01-27T23:24:23.383Z,6.33
2019-01-27T23:27:53.501Z,6.38
2019-01-27T23:31:23.683Z,6.46
2019-01-27T23:34:53.797Z,6.47
2019-01-27T23:38:23.906Z,6.56
2019-01-27T23:41:53.946Z,6.64
2019-01-27T23:45:24.242Z,6.53
2019-01-27T23:48:54.371Z,6.58
2019-01-27T23:52:24.549Z,6.54
2019-01-27T23:55:54.631Z,6.52
2019-01-27T23:59:24.735Z,6.43
